sensor_id;sensor_type;location;lat;lon;timestamp;temperature;humidity
18191;DHT22;47004;51.366;12.348;2023-04-01T00:00:47;8.80;99.90
18191;DHT22;47004;51.366;12.348;2023-04-01T00:02:50;8.80;99.90
18191;DHT22;47004;51.366;12.348;2023-04-01T00:04:52;8.80;99.90
18191;DHT22;47004;51.366;12.348;2023-04-01T00:06:54;8.80;99.90
18191;DHT22;47004;51.366;12.348;2023-04-01T00:08:56;8.80;99.90
18191;DHT22;47004;51.366;12.348;2023-04-01T00:10:59;8.80;99.90
18191;DHT22;47004;51.366;12.348;2023-04-01T00:13:01;8.80;99.90
18191;DHT22;47004;51.366;12.348;2023-04-01T00:15:04;8.80;99.90
18191;DHT22;47004;51.366;12.348;2023-04-01T00:17:06;8.70;99.90
18191;DHT22;47004;51.366;12.348;2023-04-01T00:19:08;8.70;99.90
18191;DHT22;47004;51.366;12.348;2023-04-01T00:21:10;8.70;99.90
18191;DHT22;47004;51.366;12.348;2023-04-01T00:23:12;8.70;99.90
18191;DHT22;47004;51.366;12.348;2023-04-01T00:25:14;8.70;99.90
18191;DHT22;47004;51.366;12.348;2023-04-01T00:27:17;8.70;99.90
18191;DHT22;47004;51.366;12.348;2023-04-01T00:29:19;8.70;99.90
18191;DHT22;47004;51.366;12.348;2023-04-01T00:31:22;8.70;99.90
18191;DHT22;47004;51.366;12.348;2023-04-01T00:33:24;8.70;99.90
18191;DHT22;47004;51.366;12.348;2023-04-01T00:35:25;8.70;99.90
18191;DHT22;47004;51.366;12.348;2023-04-01T00:37:27;8.70;99.90
18191;DHT22;47004;51.366;12.348;2023-04-01T00:39:29;8.70;99.90
18191;DHT22;47004;51.366;12.348;2023-04-01T00:41:32;8.70;99.90
18191;DHT22;47004;51.366;12.348;2023-04-01T00:43:35;8.70;99.90
18191;DHT22;47004;51.366;12.348;2023-04-01T00:45:39;8.70;99.90
18191;DHT22;47004;51.366;12.348;2023-04-01T00:47:41;8.70;99.90
18191;DHT22;47004;51.366;12.348;2023-04-01T00:49:46;8.70;99.90
18191;DHT22;47004;51.366;12.348;2023-04-01T00:51:51;8.70;99.90
18191;DHT22;47004;51.366;12.348;2023-04-01T00:53:56;8.70;99.90
18191;DHT22;47004;51.366;12.348;2023-04-01T00:56:03;8.70;99.90
18191;DHT22;47004;51.366;12.348;2023-04-01T00:58:13;8.70;99.90
18191;DHT22;47004;51.366;12.348;2023-04-01T01:00:18;8.70;99.90
18191;DHT22;47004;51.366;12.348;2023-04-01T01:02:20;8.70;99.90
18191;DHT22;47004;51.366;12.348;2023-04-01T01:04:24;8.70;99.90
18191;DHT22;47004;51.366;12.348;2023-04-01T01:06:37;8.60;99.90
18191;DHT22;47004;51.366;12.348;2023-04-01T01:08:51;8.70;99.90
18191;DHT22;47004;51.366;12.348;2023-04-01T01:10:54;8.70;99.90
18191;DHT22;47004;51.366;12.348;2023-04-01T01:13:01;8.70;99.90
18191;DHT22;47004;51.366;12.348;2023-04-01T01:15:11;8.70;99.90
18191;DHT22;47004;51.366;12.348;2023-04-01T01:17:21;8.70;99.90
18191;DHT22;47004;51.366;12.348;2023-04-01T01:19:45;8.70;99.90
18191;DHT22;47004;51.366;12.348;2023-04-01T01:22:06;8.70;99.90
18191;DHT22;47004;51.366;12.348;2023-04-01T01:24:22;8.70;99.90
18191;DHT22;47004;51.366;12.348;2023-04-01T01:26:40;8.70;99.90
18191;DHT22;47004;51.366;12.348;2023-04-01T01:28:51;8.70;99.90
18191;DHT22;47004;51.366;12.348;2023-04-01T01:31:02;8.70;99.90
18191;DHT22;47004;51.366;12.348;2023-04-01T01:33:23;8.70;99.90
18191;DHT22;47004;51.366;12.348;2023-04-01T01:35:31;8.70;99.90
18191;DHT22;47004;51.366;12.348;2023-04-01T01:37:34;8.70;99.90
18191;DHT22;47004;51.366;12.348;2023-04-01T01:39:37;8.60;99.90
18191;DHT22;47004;51.366;12.348;2023-04-01T01:41:42;8.60;99.90
18191;DHT22;47004;51.366;12.348;2023-04-01T01:43:48;8.70;99.90
18191;DHT22;47004;51.366;12.348;2023-04-01T01:45:54;8.60;99.90
18191;DHT22;47004;51.366;12.348;2023-04-01T01:47:59;8.60;99.90
18191;DHT22;47004;51.366;12.348;2023-04-01T01:50:02;8.60;99.90
18191;DHT22;47004;51.366;12.348;2023-04-01T01:52:06;8.60;99.90
18191;DHT22;47004;51.366;12.348;2023-04-01T01:54:12;8.70;99.90
18191;DHT22;47004;51.366;12.348;2023-04-01T01:56:14;8.60;99.90
18191;DHT22;47004;51.366;12.348;2023-04-01T01:58:21;8.60;99.90
18191;DHT22;47004;51.366;12.348;2023-04-01T02:00:24;8.60;99.90
18191;DHT22;47004;51.366;12.348;2023-04-01T02:02:27;8.60;99.90
18191;DHT22;47004;51.366;12.348;2023-04-01T02:04:32;8.60;99.90
18191;DHT22;47004;51.366;12.348;2023-04-01T02:06:38;8.60;99.90
18191;DHT22;47004;51.366;12.348;2023-04-01T02:08:44;8.60;99.90
18191;DHT22;47004;51.366;12.348;2023-04-01T02:10:52;8.70;99.90
18191;DHT22;47004;51.366;12.348;2023-04-01T02:12:59;8.60;99.90
18191;DHT22;47004;51.366;12.348;2023-04-01T02:15:05;8.60;99.90
18191;DHT22;47004;51.366;12.348;2023-04-01T02:17:12;8.60;99.90
18191;DHT22;47004;51.366;12.348;2023-04-01T02:19:17;8.60;99.90
18191;DHT22;47004;51.366;12.348;2023-04-01T02:21:24;8.60;99.90
18191;DHT22;47004;51.366;12.348;2023-04-01T02:23:28;8.60;99.90
18191;DHT22;47004;51.366;12.348;2023-04-01T02:25:34;8.60;99.90
18191;DHT22;47004;51.366;12.348;2023-04-01T02:27:37;8.60;99.90
18191;DHT22;47004;51.366;12.348;2023-04-01T02:29:39;8.60;99.90
18191;DHT22;47004;51.366;12.348;2023-04-01T02:31:42;8.60;99.90
18191;DHT22;47004;51.366;12.348;2023-04-01T02:33:45;8.60;99.90
18191;DHT22;47004;51.366;12.348;2023-04-01T02:35:47;8.60;99.90
18191;DHT22;47004;51.366;12.348;2023-04-01T02:37:49;8.60;99.90
18191;DHT22;47004;51.366;12.348;2023-04-01T02:39:52;8.60;99.90
18191;DHT22;47004;51.366;12.348;2023-04-01T02:41:55;8.60;99.90
18191;DHT22;47004;51.366;12.348;2023-04-01T02:43:57;8.60;99.90
18191;DHT22;47004;51.366;12.348;2023-04-01T02:45:59;8.60;99.90
18191;DHT22;47004;51.366;12.348;2023-04-01T02:48:02;8.60;99.90
18191;DHT22;47004;51.366;12.348;2023-04-01T02:50:05;8.60;99.90
18191;DHT22;47004;51.366;12.348;2023-04-01T02:52:08;8.60;99.90
18191;DHT22;47004;51.366;12.348;2023-04-01T02:54:09;8.60;99.90
18191;DHT22;47004;51.366;12.348;2023-04-01T02:56:11;8.60;99.90
18191;DHT22;47004;51.366;12.348;2023-04-01T02:58:14;8.60;99.90
18191;DHT22;47004;51.366;12.348;2023-04-01T03:00:17;8.70;99.90
18191;DHT22;47004;51.366;12.348;2023-04-01T03:02:19;8.60;99.90
18191;DHT22;47004;51.366;12.348;2023-04-01T03:04:21;8.60;99.90
18191;DHT22;47004;51.366;12.348;2023-04-01T03:06:23;8.60;99.90
18191;DHT22;47004;51.366;12.348;2023-04-01T03:08:24;8.60;99.90
18191;DHT22;47004;51.366;12.348;2023-04-01T03:10:26;8.60;99.90
18191;DHT22;47004;51.366;12.348;2023-04-01T03:12:28;8.60;99.90
18191;DHT22;47004;51.366;12.348;2023-04-01T03:14:31;8.60;99.90
18191;DHT22;47004;51.366;12.348;2023-04-01T03:16:33;8.60;99.90
18191;DHT22;47004;51.366;12.348;2023-04-01T03:18:35;8.60;99.90
18191;DHT22;47004;51.366;12.348;2023-04-01T03:20:37;8.60;99.90
18191;DHT22;47004;51.366;12.348;2023-04-01T03:22:39;8.60;99.90
18191;DHT22;47004;51.366;12.348;2023-04-01T03:24:41;8.60;99.90
18191;DHT22;47004;51.366;12.348;2023-04-01T03:26:43;8.60;99.90
18191;DHT22;47004;51.366;12.348;2023-04-01T03:28:45;8.60;99.90
18191;DHT22;47004;51.366;12.348;2023-04-01T03:30:48;8.60;99.90
18191;DHT22;47004;51.366;12.348;2023-04-01T03:32:50;8.60;99.90
18191;DHT22;47004;51.366;12.348;2023-04-01T03:34:52;8.60;99.90
18191;DHT22;47004;51.366;12.348;2023-04-01T03:36:54;8.60;99.90
18191;DHT22;47004;51.366;12.348;2023-04-01T03:38:56;8.60;99.90
18191;DHT22;47004;51.366;12.348;2023-04-01T03:40:58;8.50;99.90
18191;DHT22;47004;51.366;12.348;2023-04-01T03:42:59;8.50;99.90
18191;DHT22;47004;51.366;12.348;2023-04-01T03:45:02;8.50;99.90
18191;DHT22;47004;51.366;12.348;2023-04-01T03:47:05;8.50;99.90
18191;DHT22;47004;51.366;12.348;2023-04-01T03:49:10;8.60;99.90
18191;DHT22;47004;51.366;12.348;2023-04-01T03:51:13;8.50;99.90
18191;DHT22;47004;51.366;12.348;2023-04-01T03:53:15;8.50;99.90
18191;DHT22;47004;51.366;12.348;2023-04-01T03:55:16;8.60;99.90
18191;DHT22;47004;51.366;12.348;2023-04-01T03:57:19;8.60;99.90
18191;DHT22;47004;51.366;12.348;2023-04-01T03:59:21;8.60;99.90
18191;DHT22;47004;51.366;12.348;2023-04-01T04:01:23;8.50;99.90
18191;DHT22;47004;51.366;12.348;2023-04-01T04:03:26;8.60;99.90
18191;DHT22;47004;51.366;12.348;2023-04-01T04:05:28;8.60;99.90
18191;DHT22;47004;51.366;12.348;2023-04-01T04:07:30;8.50;99.90
18191;DHT22;47004;51.366;12.348;2023-04-01T04:09:32;8.50;99.90
18191;DHT22;47004;51.366;12.348;2023-04-01T04:11:34;8.50;99.90
18191;DHT22;47004;51.366;12.348;2023-04-01T04:13:36;8.50;99.90
18191;DHT22;47004;51.366;12.348;2023-04-01T04:15:38;8.50;99.90
18191;DHT22;47004;51.366;12.348;2023-04-01T04:17:40;8.50;99.90
18191;DHT22;47004;51.366;12.348;2023-04-01T04:19:44;8.50;99.90
18191;DHT22;47004;51.366;12.348;2023-04-01T04:21:45;8.50;99.90
18191;DHT22;47004;51.366;12.348;2023-04-01T04:23:47;8.50;99.90
18191;DHT22;47004;51.366;12.348;2023-04-01T04:25:57;8.50;99.90
18191;DHT22;47004;51.366;12.348;2023-04-01T04:27:59;8.50;99.90
18191;DHT22;47004;51.366;12.348;2023-04-01T04:30:01;8.50;99.90
18191;DHT22;47004;51.366;12.348;2023-04-01T04:32:03;8.50;99.90
18191;DHT22;47004;51.366;12.348;2023-04-01T04:34:05;8.50;99.90
18191;DHT22;47004;51.366;12.348;2023-04-01T04:36:09;8.50;99.90
18191;DHT22;47004;51.366;12.348;2023-04-01T04:38:10;8.50;99.90
18191;DHT22;47004;51.366;12.348;2023-04-01T04:40:12;8.40;99.90
18191;DHT22;47004;51.366;12.348;2023-04-01T04:42:15;8.50;99.90
18191;DHT22;47004;51.366;12.348;2023-04-01T04:44:16;8.50;99.90
18191;DHT22;47004;51.366;12.348;2023-04-01T04:46:19;8.40;99.90
18191;DHT22;47004;51.366;12.348;2023-04-01T04:48:21;8.40;99.90
18191;DHT22;47004;51.366;12.348;2023-04-01T04:50:24;8.40;99.90
18191;DHT22;47004;51.366;12.348;2023-04-01T04:52:27;8.40;99.90
18191;DHT22;47004;51.366;12.348;2023-04-01T04:54:29;8.40;99.90
18191;DHT22;47004;51.366;12.348;2023-04-01T04:56:31;8.40;99.90
18191;DHT22;47004;51.366;12.348;2023-04-01T04:58:33;8.40;99.90
18191;DHT22;47004;51.366;12.348;2023-04-01T05:00:35;8.40;99.90
18191;DHT22;47004;51.366;12.348;2023-04-01T05:02:37;8.40;99.90
18191;DHT22;47004;51.366;12.348;2023-04-01T05:04:39;8.40;99.90
18191;DHT22;47004;51.366;12.348;2023-04-01T05:06:43;8.40;99.90
18191;DHT22;47004;51.366;12.348;2023-04-01T05:08:46;8.40;99.90
18191;DHT22;47004;51.366;12.348;2023-04-01T05:10:48;8.40;99.90
18191;DHT22;47004;51.366;12.348;2023-04-01T05:12:50;8.40;99.90
18191;DHT22;47004;51.366;12.348;2023-04-01T05:14:52;8.40;99.90
18191;DHT22;47004;51.366;12.348;2023-04-01T05:16:54;8.40;99.90
18191;DHT22;47004;51.366;12.348;2023-04-01T05:18:56;8.40;99.90
18191;DHT22;47004;51.366;12.348;2023-04-01T05:20:58;8.40;99.90
18191;DHT22;47004;51.366;12.348;2023-04-01T05:23:00;8.50;99.90
18191;DHT22;47004;51.366;12.348;2023-04-01T05:25:06;8.50;99.90
18191;DHT22;47004;51.366;12.348;2023-04-01T05:27:08;8.50;99.90
18191;DHT22;47004;51.366;12.348;2023-04-01T05:29:10;8.50;99.90
18191;DHT22;47004;51.366;12.348;2023-04-01T05:31:12;8.50;99.90
18191;DHT22;47004;51.366;12.348;2023-04-01T05:33:14;8.50;99.90
18191;DHT22;47004;51.366;12.348;2023-04-01T05:35:16;8.50;99.90
18191;DHT22;47004;51.366;12.348;2023-04-01T05:37:18;8.50;99.90
18191;DHT22;47004;51.366;12.348;2023-04-01T05:39:22;8.50;99.90
18191;DHT22;47004;51.366;12.348;2023-04-01T05:41:26;8.50;99.90
18191;DHT22;47004;51.366;12.348;2023-04-01T05:43:28;8.60;99.90
18191;DHT22;47004;51.366;12.348;2023-04-01T05:45:30;8.60;99.90
18191;DHT22;47004;51.366;12.348;2023-04-01T05:47:32;8.60;99.90
18191;DHT22;47004;51.366;12.348;2023-04-01T05:49:37;8.60;99.90
18191;DHT22;47004;51.366;12.348;2023-04-01T05:51:40;8.60;99.90
18191;DHT22;47004;51.366;12.348;2023-04-01T05:53:42;8.60;99.90
18191;DHT22;47004;51.366;12.348;2023-04-01T05:55:44;8.60;99.90
18191;DHT22;47004;51.366;12.348;2023-04-01T05:57:47;8.60;99.90
18191;DHT22;47004;51.366;12.348;2023-04-01T05:59:50;8.60;99.90
18191;DHT22;47004;51.366;12.348;2023-04-01T06:01:52;8.60;99.90
18191;DHT22;47004;51.366;12.348;2023-04-01T06:03:54;8.60;99.90
18191;DHT22;47004;51.366;12.348;2023-04-01T06:05:56;8.60;99.90
18191;DHT22;47004;51.366;12.348;2023-04-01T06:08:00;8.60;99.90
18191;DHT22;47004;51.366;12.348;2023-04-01T06:10:10;8.60;99.90
18191;DHT22;47004;51.366;12.348;2023-04-01T06:12:35;8.70;99.90
18191;DHT22;47004;51.366;12.348;2023-04-01T06:14:48;8.70;99.90
18191;DHT22;47004;51.366;12.348;2023-04-01T06:17:01;8.70;99.90
18191;DHT22;47004;51.366;12.348;2023-04-01T06:19:25;8.70;99.90
18191;DHT22;47004;51.366;12.348;2023-04-01T06:22:18;8.70;99.90
18191;DHT22;47004;51.366;12.348;2023-04-01T06:24:37;8.70;99.90
18191;DHT22;47004;51.366;12.348;2023-04-01T06:26:49;8.80;99.90
18191;DHT22;47004;51.366;12.348;2023-04-01T06:34:33;8.90;99.90
18191;DHT22;47004;51.366;12.348;2023-04-01T06:36:54;8.90;99.90
18191;DHT22;47004;51.366;12.348;2023-04-01T06:41:44;8.90;99.90
18191;DHT22;47004;51.366;12.348;2023-04-01T06:43:56;8.90;99.90
18191;DHT22;47004;51.366;12.348;2023-04-01T06:46:05;8.90;99.90
18191;DHT22;47004;51.366;12.348;2023-04-01T06:48:28;9.00;99.90
18191;DHT22;47004;51.366;12.348;2023-04-01T06:50:36;9.00;99.90
18191;DHT22;47004;51.366;12.348;2023-04-01T06:52:47;9.00;99.90
18191;DHT22;47004;51.366;12.348;2023-04-01T06:54:57;9.00;99.90
18191;DHT22;47004;51.366;12.348;2023-04-01T06:57:07;9.10;99.90
18191;DHT22;47004;51.366;12.348;2023-04-01T06:59:13;9.10;99.90
18191;DHT22;47004;51.366;12.348;2023-04-01T07:01:19;9.10;99.90
18191;DHT22;47004;51.366;12.348;2023-04-01T07:03:30;9.20;99.90
18191;DHT22;47004;51.366;12.348;2023-04-01T07:05:34;9.20;99.90
18191;DHT22;47004;51.366;12.348;2023-04-01T07:07:39;9.20;99.90
18191;DHT22;47004;51.366;12.348;2023-04-01T07:09:49;9.30;99.90
18191;DHT22;47004;51.366;12.348;2023-04-01T07:11:54;9.30;99.90
18191;DHT22;47004;51.366;12.348;2023-04-01T07:14:01;9.30;99.90
18191;DHT22;47004;51.366;12.348;2023-04-01T07:16:09;9.30;99.90
18191;DHT22;47004;51.366;12.348;2023-04-01T07:18:15;9.40;99.90
18191;DHT22;47004;51.366;12.348;2023-04-01T07:20:22;9.40;99.90
18191;DHT22;47004;51.366;12.348;2023-04-01T07:22:29;9.40;99.90
18191;DHT22;47004;51.366;12.348;2023-04-01T07:24:34;9.40;99.90
18191;DHT22;47004;51.366;12.348;2023-04-01T07:26:37;9.40;99.90
18191;DHT22;47004;51.366;12.348;2023-04-01T07:28:39;9.50;99.90
18191;DHT22;47004;51.366;12.348;2023-04-01T07:30:50;9.50;99.90
18191;DHT22;47004;51.366;12.348;2023-04-01T07:32:59;9.50;99.90
18191;DHT22;47004;51.366;12.348;2023-04-01T07:35:12;9.50;99.90
18191;DHT22;47004;51.366;12.348;2023-04-01T07:37:22;9.60;99.90
18191;DHT22;47004;51.366;12.348;2023-04-01T07:39:37;9.60;99.90
18191;DHT22;47004;51.366;12.348;2023-04-01T07:41:49;9.60;99.90
18191;DHT22;47004;51.366;12.348;2023-04-01T07:44:05;9.60;99.90
18191;DHT22;47004;51.366;12.348;2023-04-01T07:46:14;9.60;99.90
18191;DHT22;47004;51.366;12.348;2023-04-01T07:48:26;9.70;99.90
18191;DHT22;47004;51.366;12.348;2023-04-01T07:50:34;9.70;99.90
18191;DHT22;47004;51.366;12.348;2023-04-01T07:52:44;9.70;99.90
18191;DHT22;47004;51.366;12.348;2023-04-01T07:54:53;9.80;99.90
18191;DHT22;47004;51.366;12.348;2023-04-01T07:57:01;9.80;99.90
18191;DHT22;47004;51.366;12.348;2023-04-01T07:59:11;9.80;99.90
18191;DHT22;47004;51.366;12.348;2023-04-01T08:01:21;9.80;99.90
18191;DHT22;47004;51.366;12.348;2023-04-01T08:03:43;9.80;99.90
18191;DHT22;47004;51.366;12.348;2023-04-01T08:05:55;9.80;99.90
18191;DHT22;47004;51.366;12.348;2023-04-01T08:08:05;9.80;99.90
18191;DHT22;47004;51.366;12.348;2023-04-01T08:10:14;9.80;99.90
18191;DHT22;47004;51.366;12.348;2023-04-01T08:12:28;9.80;99.90
18191;DHT22;47004;51.366;12.348;2023-04-01T08:14:38;9.90;99.90
18191;DHT22;47004;51.366;12.348;2023-04-01T08:16:46;9.90;99.90
18191;DHT22;47004;51.366;12.348;2023-04-01T08:19:00;9.90;99.90
18191;DHT22;47004;51.366;12.348;2023-04-01T08:21:11;9.90;99.90
18191;DHT22;47004;51.366;12.348;2023-04-01T08:23:18;9.90;99.90
18191;DHT22;47004;51.366;12.348;2023-04-01T08:25:24;9.90;99.90
18191;DHT22;47004;51.366;12.348;2023-04-01T08:27:31;10.00;99.90
18191;DHT22;47004;51.366;12.348;2023-04-01T08:29:41;10.00;99.90
18191;DHT22;47004;51.366;12.348;2023-04-01T08:31:49;10.10;99.90
18191;DHT22;47004;51.366;12.348;2023-04-01T08:33:54;10.10;99.90
18191;DHT22;47004;51.366;12.348;2023-04-01T08:36:01;10.20;99.90
18191;DHT22;47004;51.366;12.348;2023-04-01T08:38:07;10.20;99.90
18191;DHT22;47004;51.366;12.348;2023-04-01T08:40:32;10.20;99.90
18191;DHT22;47004;51.366;12.348;2023-04-01T08:42:52;10.30;99.90
18191;DHT22;47004;51.366;12.348;2023-04-01T08:45:15;10.20;99.90
18191;DHT22;47004;51.366;12.348;2023-04-01T08:47:52;10.30;99.90
18191;DHT22;47004;51.366;12.348;2023-04-01T08:50:19;10.30;99.90
18191;DHT22;47004;51.366;12.348;2023-04-01T08:52:34;10.40;99.90
18191;DHT22;47004;51.366;12.348;2023-04-01T08:54:55;10.40;99.90
18191;DHT22;47004;51.366;12.348;2023-04-01T08:57:08;10.40;99.90
18191;DHT22;47004;51.366;12.348;2023-04-01T08:59:33;10.40;99.90
18191;DHT22;47004;51.366;12.348;2023-04-01T09:01:51;10.40;99.90
18191;DHT22;47004;51.366;12.348;2023-04-01T09:04:18;10.40;99.90
18191;DHT22;47004;51.366;12.348;2023-04-01T09:06:29;10.50;99.90
18191;DHT22;47004;51.366;12.348;2023-04-01T09:08:46;10.50;99.90
18191;DHT22;47004;51.366;12.348;2023-04-01T09:11:02;10.60;99.90
18191;DHT22;47004;51.366;12.348;2023-04-01T09:13:17;10.60;99.90
18191;DHT22;47004;51.366;12.348;2023-04-01T09:15:42;10.60;99.90
18191;DHT22;47004;51.366;12.348;2023-04-01T09:23:15;10.90;99.90
18191;DHT22;47004;51.366;12.348;2023-04-01T09:25:31;10.90;99.90
18191;DHT22;47004;51.366;12.348;2023-04-01T09:27:43;10.80;99.90
18191;DHT22;47004;51.366;12.348;2023-04-01T09:30:19;10.90;99.90
18191;DHT22;47004;51.366;12.348;2023-04-01T09:32:46;10.90;99.90
18191;DHT22;47004;51.366;12.348;2023-04-01T09:34:54;10.90;99.90
18191;DHT22;47004;51.366;12.348;2023-04-01T09:37:17;11.00;99.90
18191;DHT22;47004;51.366;12.348;2023-04-01T09:39:34;10.90;99.90
18191;DHT22;47004;51.366;12.348;2023-04-01T09:41:50;10.90;99.90
18191;DHT22;47004;51.366;12.348;2023-04-01T09:44:02;11.00;99.90
18191;DHT22;47004;51.366;12.348;2023-04-01T09:46:16;11.00;99.90
18191;DHT22;47004;51.366;12.348;2023-04-01T09:48:35;11.10;99.90
18191;DHT22;47004;51.366;12.348;2023-04-01T09:50:47;11.10;99.90
18191;DHT22;47004;51.366;12.348;2023-04-01T09:53:07;11.20;99.90
18191;DHT22;47004;51.366;12.348;2023-04-01T09:58:32;11.20;99.90
18191;DHT22;47004;51.366;12.348;2023-04-01T10:01:09;11.20;99.90
18191;DHT22;47004;51.366;12.348;2023-04-01T10:03:59;11.30;99.90
18191;DHT22;47004;51.366;12.348;2023-04-01T10:06:41;11.20;99.90
18191;DHT22;47004;51.366;12.348;2023-04-01T10:12:02;11.30;99.90
18191;DHT22;47004;51.366;12.348;2023-04-01T10:17:16;11.30;99.90
18191;DHT22;47004;51.366;12.348;2023-04-01T10:19:46;11.20;99.90
18191;DHT22;47004;51.366;12.348;2023-04-01T10:27:47;11.10;99.90
18191;DHT22;47004;51.366;12.348;2023-04-01T10:30:26;11.10;99.90
18191;DHT22;47004;51.366;12.348;2023-04-01T10:35:24;11.10;99.90
18191;DHT22;47004;51.366;12.348;2023-04-01T10:37:48;11.00;99.90
18191;DHT22;47004;51.366;12.348;2023-04-01T10:40:17;11.10;99.90
18191;DHT22;47004;51.366;12.348;2023-04-01T10:42:50;11.10;99.90
18191;DHT22;47004;51.366;12.348;2023-04-01T10:48:09;11.10;99.90
18191;DHT22;47004;51.366;12.348;2023-04-01T10:55:37;11.10;99.90
18191;DHT22;47004;51.366;12.348;2023-04-01T10:58:22;11.10;99.90
18191;DHT22;47004;51.366;12.348;2023-04-01T11:00:51;11.10;99.90
18191;DHT22;47004;51.366;12.348;2023-04-01T11:11:20;11.00;99.90
18191;DHT22;47004;51.366;12.348;2023-04-01T11:14:11;11.00;99.90
18191;DHT22;47004;51.366;12.348;2023-04-01T11:16:43;11.00;99.90
18191;DHT22;47004;51.366;12.348;2023-04-01T11:19:27;11.00;99.90
18191;DHT22;47004;51.366;12.348;2023-04-01T11:21:46;11.00;99.90
18191;DHT22;47004;51.366;12.348;2023-04-01T11:24:08;11.00;99.90
18191;DHT22;47004;51.366;12.348;2023-04-01T11:26:26;11.00;99.90
18191;DHT22;47004;51.366;12.348;2023-04-01T11:29:03;11.10;99.90
18191;DHT22;47004;51.366;12.348;2023-04-01T11:31:30;11.10;99.90
18191;DHT22;47004;51.366;12.348;2023-04-01T11:33:36;11.20;99.90
18191;DHT22;47004;51.366;12.348;2023-04-01T11:35:52;11.10;99.90
18191;DHT22;47004;51.366;12.348;2023-04-01T11:38:07;11.20;99.90
18191;DHT22;47004;51.366;12.348;2023-04-01T11:40:20;11.30;99.90
18191;DHT22;47004;51.366;12.348;2023-04-01T11:42:36;11.30;99.90
18191;DHT22;47004;51.366;12.348;2023-04-01T11:44:48;11.40;99.90
18191;DHT22;47004;51.366;12.348;2023-04-01T11:47:09;11.60;99.90
18191;DHT22;47004;51.366;12.348;2023-04-01T11:49:27;11.70;99.90
18191;DHT22;47004;51.366;12.348;2023-04-01T11:51:46;11.90;99.90
18191;DHT22;47004;51.366;12.348;2023-04-01T11:53:58;12.00;99.90
18191;DHT22;47004;51.366;12.348;2023-04-01T11:56:18;12.00;99.90
18191;DHT22;47004;51.366;12.348;2023-04-01T11:59:04;12.00;99.90
18191;DHT22;47004;51.366;12.348;2023-04-01T12:01:18;11.90;99.90
18191;DHT22;47004;51.366;12.348;2023-04-01T12:03:36;11.80;99.90
18191;DHT22;47004;51.366;12.348;2023-04-01T12:05:46;11.70;99.90
18191;DHT22;47004;51.366;12.348;2023-04-01T12:08:07;11.60;99.90
18191;DHT22;47004;51.366;12.348;2023-04-01T12:10:17;11.50;99.90
18191;DHT22;47004;51.366;12.348;2023-04-01T12:12:27;11.40;99.90
18191;DHT22;47004;51.366;12.348;2023-04-01T12:14:36;11.40;99.90
18191;DHT22;47004;51.366;12.348;2023-04-01T12:16:54;11.30;99.90
18191;DHT22;47004;51.366;12.348;2023-04-01T12:19:04;11.40;99.90
18191;DHT22;47004;51.366;12.348;2023-04-01T12:21:21;11.30;99.90
18191;DHT22;47004;51.366;12.348;2023-04-01T12:23:42;11.30;99.90
18191;DHT22;47004;51.366;12.348;2023-04-01T12:26:15;11.30;99.90
18191;DHT22;47004;51.366;12.348;2023-04-01T12:28:25;11.20;99.90
18191;DHT22;47004;51.366;12.348;2023-04-01T12:30:39;11.30;99.90
18191;DHT22;47004;51.366;12.348;2023-04-01T12:32:49;11.20;99.90
18191;DHT22;47004;51.366;12.348;2023-04-01T12:35:13;11.20;99.90
18191;DHT22;47004;51.366;12.348;2023-04-01T12:37:20;11.20;99.90
18191;DHT22;47004;51.366;12.348;2023-04-01T12:39:37;11.20;99.90
18191;DHT22;47004;51.366;12.348;2023-04-01T12:41:48;11.20;99.90
18191;DHT22;47004;51.366;12.348;2023-04-01T12:44:07;11.20;99.90
18191;DHT22;47004;51.366;12.348;2023-04-01T12:46:16;11.30;99.90
18191;DHT22;47004;51.366;12.348;2023-04-01T12:48:48;11.30;99.90
18191;DHT22;47004;51.366;12.348;2023-04-01T12:53:49;11.40;99.90
18191;DHT22;47004;51.366;12.348;2023-04-01T12:55:54;11.40;99.90
18191;DHT22;47004;51.366;12.348;2023-04-01T13:00:43;11.50;99.90
18191;DHT22;47004;51.366;12.348;2023-04-01T13:03:02;11.60;99.90
18191;DHT22;47004;51.366;12.348;2023-04-01T13:05:24;11.60;99.90
18191;DHT22;47004;51.366;12.348;2023-04-01T13:07:53;11.50;99.90
18191;DHT22;47004;51.366;12.348;2023-04-01T13:10:06;11.50;99.90
18191;DHT22;47004;51.366;12.348;2023-04-01T13:12:24;11.50;99.90
18191;DHT22;47004;51.366;12.348;2023-04-01T13:14:54;11.50;99.90
18191;DHT22;47004;51.366;12.348;2023-04-01T13:17:07;11.50;99.90
18191;DHT22;47004;51.366;12.348;2023-04-01T13:19:17;11.50;99.90
18191;DHT22;47004;51.366;12.348;2023-04-01T13:21:28;11.50;99.90
18191;DHT22;47004;51.366;12.348;2023-04-01T13:23:39;11.40;99.90
18191;DHT22;47004;51.366;12.348;2023-04-01T13:25:51;11.40;99.90
18191;DHT22;47004;51.366;12.348;2023-04-01T13:27:58;11.40;99.90
18191;DHT22;47004;51.366;12.348;2023-04-01T13:30:21;11.40;99.90
18191;DHT22;47004;51.366;12.348;2023-04-01T13:32:31;11.40;99.90
18191;DHT22;47004;51.366;12.348;2023-04-01T13:34:46;11.40;99.90
18191;DHT22;47004;51.366;12.348;2023-04-01T13:36:58;11.40;99.90
18191;DHT22;47004;51.366;12.348;2023-04-01T13:39:17;11.40;99.90
18191;DHT22;47004;51.366;12.348;2023-04-01T13:41:28;11.40;99.90
18191;DHT22;47004;51.366;12.348;2023-04-01T13:43:37;11.30;99.90
18191;DHT22;47004;51.366;12.348;2023-04-01T13:48:28;11.20;99.90
18191;DHT22;47004;51.366;12.348;2023-04-01T13:50:46;11.10;99.90
18191;DHT22;47004;51.366;12.348;2023-04-01T13:53:14;11.00;99.90
18191;DHT22;47004;51.366;12.348;2023-04-01T13:55:37;11.00;99.90
18191;DHT22;47004;51.366;12.348;2023-04-01T13:57:55;11.00;99.90
18191;DHT22;47004;51.366;12.348;2023-04-01T14:00:22;11.00;99.90
18191;DHT22;47004;51.366;12.348;2023-04-01T14:02:45;11.00;99.90
18191;DHT22;47004;51.366;12.348;2023-04-01T14:04:56;11.00;99.90
18191;DHT22;47004;51.366;12.348;2023-04-01T14:07:19;11.00;99.90
18191;DHT22;47004;51.366;12.348;2023-04-01T14:09:50;11.00;99.90
18191;DHT22;47004;51.366;12.348;2023-04-01T14:12:04;11.00;99.90
18191;DHT22;47004;51.366;12.348;2023-04-01T14:14:18;11.10;99.90
18191;DHT22;47004;51.366;12.348;2023-04-01T14:16:58;11.10;99.90
18191;DHT22;47004;51.366;12.348;2023-04-01T14:19:17;11.10;99.90
18191;DHT22;47004;51.366;12.348;2023-04-01T14:21:29;11.10;99.90
18191;DHT22;47004;51.366;12.348;2023-04-01T14:29:02;11.10;99.90
18191;DHT22;47004;51.366;12.348;2023-04-01T14:31:30;11.20;99.90
18191;DHT22;47004;51.366;12.348;2023-04-01T14:33:40;11.10;99.90
18191;DHT22;47004;51.366;12.348;2023-04-01T14:35:51;11.10;99.90
18191;DHT22;47004;51.366;12.348;2023-04-01T14:38:12;11.10;99.90
18191;DHT22;47004;51.366;12.348;2023-04-01T14:40:28;11.10;99.90